Terminal Aerodrome Forecast
Issued by NWS

Home | Current Version | Previous Version | Text Only | Print | Product List | Glossary On
Versions: 1 2 3 4 5 6 7 8 9 10 11 12 13 14 15 16 17 18 19 20 21
000
FTUS41 KGYX 231100
TAFRKD
TAF
KRKD 231120Z 2312/2412 22004KT 5SM BR SCT250
     FM231230 22008KT P6SM SCT050 SCT250
     FM240000 24010KT 5SM -TSRA BKN050CB
     FM240600 30005KT P6SM BKN100
      AMD LTD TO CLD VIS AND WIND=

USA.gov is the U.S. government's official web portal to all federal, state and local government web resources and services.